sensor_id;sensor_type;location;lat;lon;timestamp;pressure;altitude;pressure_sealevel;temperature;humidity
18784;BME280;9520;50.954;6.968;2023-12-20T00:00:10;100902.75;;;15.04;63.88
18784;BME280;9520;50.954;6.968;2023-12-20T00:00:31;100900.13;;;15.02;63.87
18784;BME280;9520;50.954;6.968;2023-12-20T00:00:54;100905.22;;;15.10;63.74
18784;BME280;9520;50.954;6.968;2023-12-20T00:01:16;100902.56;;;15.10;63.83
18784;BME280;9520;50.954;6.968;2023-12-20T00:01:38;100907.84;;;15.11;63.77
18784;BME280;9520;50.954;6.968;2023-12-20T00:02:01;100900.72;;;15.12;63.58
18784;BME280;9520;50.954;6.968;2023-12-20T00:02:24;100903.25;;;15.17;63.46
18784;BME280;9520;50.954;6.968;2023-12-20T00:02:45;100902.69;;;15.05;63.27
18784;BME280;9520;50.954;6.968;2023-12-20T00:03:08;100902.34;;;14.88;64.13
18784;BME280;9520;50.954;6.968;2023-12-20T00:03:30;100905.72;;;14.93;64.15
18784;BME280;9520;50.954;6.968;2023-12-20T00:04:03;100901.44;;;14.89;64.05
18784;BME280;9520;50.954;6.968;2023-12-20T00:04:26;100904.03;;;14.91;64.05
18784;BME280;9520;50.954;6.968;2023-12-20T00:04:47;100910.97;;;14.95;64.09
18784;BME280;9520;50.954;6.968;2023-12-20T00:05:09;100903.72;;;15.01;63.90
18784;BME280;9520;50.954;6.968;2023-12-20T00:05:31;100906.41;;;15.00;63.95
18784;BME280;9520;50.954;6.968;2023-12-20T00:05:53;100907.22;;;15.02;63.96
18784;BME280;9520;50.954;6.968;2023-12-20T00:06:15;100904.53;;;15.03;64.03
18784;BME280;9520;50.954;6.968;2023-12-20T00:06:38;100907.97;;;15.07;63.88
18784;BME280;9520;50.954;6.968;2023-12-20T00:07:00;100914.13;;;15.09;63.73
18784;BME280;9520;50.954;6.968;2023-12-20T00:07:24;100911.34;;;15.12;63.54
18784;BME280;9520;50.954;6.968;2023-12-20T00:07:46;100904.31;;;15.11;63.52
18784;BME280;9520;50.954;6.968;2023-12-20T00:08:08;100910.44;;;15.13;63.36
18784;BME280;9520;50.954;6.968;2023-12-20T00:08:31;100909.63;;;15.11;63.55
18784;BME280;9520;50.954;6.968;2023-12-20T00:08:53;100911.25;;;15.15;63.45
18784;BME280;9520;50.954;6.968;2023-12-20T00:09:15;100908.53;;;15.18;63.40
18784;BME280;9520;50.954;6.968;2023-12-20T00:09:36;100911.91;;;15.23;63.37
18784;BME280;9520;50.954;6.968;2023-12-20T00:09:58;100909.25;;;15.23;63.23
18784;BME280;9520;50.954;6.968;2023-12-20T00:10:21;100916.34;;;15.23;63.15
18784;BME280;9520;50.954;6.968;2023-12-20T00:10:43;100918.84;;;15.29;62.99
18784;BME280;9520;50.954;6.968;2023-12-20T00:11:05;100917.22;;;15.23;63.16
18784;BME280;9520;50.954;6.968;2023-12-20T00:11:26;100914.31;;;14.72;63.98
18784;BME280;9520;50.954;6.968;2023-12-20T00:11:48;100919.25;;;14.53;64.82
18784;BME280;9520;50.954;6.968;2023-12-20T00:12:10;100911.31;;;14.53;65.20
18784;BME280;9520;50.954;6.968;2023-12-20T00:12:32;100915.44;;;14.63;65.18
18784;BME280;9520;50.954;6.968;2023-12-20T00:12:54;100910.03;;;14.66;65.23
18784;BME280;9520;50.954;6.968;2023-12-20T00:13:16;100919.44;;;14.78;64.97
18784;BME280;9520;50.954;6.968;2023-12-20T00:13:38;100912.13;;;14.86;64.86
18784;BME280;9520;50.954;6.968;2023-12-20T00:13:59;100917.38;;;14.89;64.67
18784;BME280;9520;50.954;6.968;2023-12-20T00:14:21;100913.97;;;14.84;64.36
18784;BME280;9520;50.954;6.968;2023-12-20T00:14:44;100912.97;;;14.88;64.47
18784;BME280;9520;50.954;6.968;2023-12-20T00:15:06;100917.28;;;14.91;64.33
18784;BME280;9520;50.954;6.968;2023-12-20T00:15:28;100907.34;;;14.99;64.07
18784;BME280;9520;50.954;6.968;2023-12-20T00:15:50;100908.38;;;14.93;64.02
18784;BME280;9520;50.954;6.968;2023-12-20T00:16:11;100897.94;;;14.87;64.18
18784;BME280;9520;50.954;6.968;2023-12-20T00:16:33;100908.53;;;14.89;64.28
18784;BME280;9520;50.954;6.968;2023-12-20T00:16:56;100906.97;;;14.80;64.48
18784;BME280;9520;50.954;6.968;2023-12-20T00:17:17;100912.25;;;14.82;64.45
18784;BME280;9520;50.954;6.968;2023-12-20T00:17:39;100908.00;;;14.76;64.81
18784;BME280;9520;50.954;6.968;2023-12-20T00:18:01;100907.13;;;14.76;64.82
18784;BME280;9520;50.954;6.968;2023-12-20T00:18:23;100907.59;;;14.59;65.25
18784;BME280;9520;50.954;6.968;2023-12-20T00:18:45;100908.56;;;14.56;65.44
18784;BME280;9520;50.954;6.968;2023-12-20T00:19:07;100911.91;;;14.63;65.27
18784;BME280;9520;50.954;6.968;2023-12-20T00:19:29;100903.09;;;14.61;65.61
18784;BME280;9520;50.954;6.968;2023-12-20T00:19:51;100903.03;;;14.64;65.53
18784;BME280;9520;50.954;6.968;2023-12-20T00:20:13;100904.88;;;14.60;65.63
18784;BME280;9520;50.954;6.968;2023-12-20T00:20:35;100905.69;;;14.64;65.45
18784;BME280;9520;50.954;6.968;2023-12-20T00:20:58;100906.00;;;14.53;65.85
18784;BME280;9520;50.954;6.968;2023-12-20T00:21:20;100913.81;;;14.58;65.60
18784;BME280;9520;50.954;6.968;2023-12-20T00:21:41;100913.69;;;14.62;65.72
18784;BME280;9520;50.954;6.968;2023-12-20T00:22:03;100919.75;;;14.67;65.69
18784;BME280;9520;50.954;6.968;2023-12-20T00:22:27;100915.28;;;14.69;65.70
18784;BME280;9520;50.954;6.968;2023-12-20T00:22:48;100902.78;;;14.73;65.65
18784;BME280;9520;50.954;6.968;2023-12-20T00:23:11;100916.78;;;14.78;65.52
18784;BME280;9520;50.954;6.968;2023-12-20T00:23:32;100920.22;;;14.82;65.44
18784;BME280;9520;50.954;6.968;2023-12-20T00:23:54;100912.19;;;14.85;65.38
18784;BME280;9520;50.954;6.968;2023-12-20T00:24:16;100918.25;;;14.90;65.05
18784;BME280;9520;50.954;6.968;2023-12-20T00:24:37;100917.25;;;14.92;64.98
18784;BME280;9520;50.954;6.968;2023-12-20T00:24:59;100914.56;;;14.94;64.90
18784;BME280;9520;50.954;6.968;2023-12-20T00:25:22;100926.06;;;14.94;64.74
18784;BME280;9520;50.954;6.968;2023-12-20T00:25:43;100913.84;;;14.89;64.59
18784;BME280;9520;50.954;6.968;2023-12-20T00:26:05;100919.00;;;14.93;64.64
18784;BME280;9520;50.954;6.968;2023-12-20T00:26:27;100914.47;;;14.97;64.63
18784;BME280;9520;50.954;6.968;2023-12-20T00:26:49;100915.25;;;15.00;64.54
18784;BME280;9520;50.954;6.968;2023-12-20T00:27:12;100914.31;;;15.03;64.41
18784;BME280;9520;50.954;6.968;2023-12-20T00:27:33;100912.56;;;15.02;64.51
18784;BME280;9520;50.954;6.968;2023-12-20T00:27:55;100915.97;;;15.05;64.54
18784;BME280;9520;50.954;6.968;2023-12-20T00:28:17;100912.44;;;15.05;64.27
18784;BME280;9520;50.954;6.968;2023-12-20T00:28:39;100917.44;;;14.86;64.38
18784;BME280;9520;50.954;6.968;2023-12-20T00:29:01;100922.16;;;14.75;65.06
18784;BME280;9520;50.954;6.968;2023-12-20T00:29:23;100908.06;;;14.75;65.09
18784;BME280;9520;50.954;6.968;2023-12-20T00:29:45;100927.28;;;14.83;65.01
18784;BME280;9520;50.954;6.968;2023-12-20T00:30:11;100921.81;;;14.89;64.90
18784;BME280;9520;50.954;6.968;2023-12-20T00:30:33;100929.69;;;14.90;64.85
18784;BME280;9520;50.954;6.968;2023-12-20T00:30:55;100921.66;;;14.93;64.84
18784;BME280;9520;50.954;6.968;2023-12-20T00:31:17;100920.69;;;14.96;64.83
18784;BME280;9520;50.954;6.968;2023-12-20T00:31:39;100923.28;;;14.99;64.60
18784;BME280;9520;50.954;6.968;2023-12-20T00:32:01;100921.34;;;15.04;64.38
18784;BME280;9520;50.954;6.968;2023-12-20T00:32:23;100924.75;;;15.09;64.37
18784;BME280;9520;50.954;6.968;2023-12-20T00:32:44;100925.63;;;15.09;64.16
18784;BME280;9520;50.954;6.968;2023-12-20T00:33:08;100920.25;;;15.11;64.37
18784;BME280;9520;50.954;6.968;2023-12-20T00:33:30;100921.94;;;15.13;64.06
18784;BME280;9520;50.954;6.968;2023-12-20T00:33:52;100925.38;;;15.17;63.80
18784;BME280;9520;50.954;6.968;2023-12-20T00:34:14;100922.81;;;15.14;63.82
18784;BME280;9520;50.954;6.968;2023-12-20T00:34:36;100927.19;;;15.15;63.67
18784;BME280;9520;50.954;6.968;2023-12-20T00:34:59;100922.81;;;15.14;63.72
18784;BME280;9520;50.954;6.968;2023-12-20T00:35:20;100920.16;;;15.14;63.67
18784;BME280;9520;50.954;6.968;2023-12-20T00:35:42;100923.78;;;15.11;63.75
18784;BME280;9520;50.954;6.968;2023-12-20T00:36:04;100923.78;;;15.11;63.77
18784;BME280;9520;50.954;6.968;2023-12-20T00:36:27;100921.94;;;15.13;63.75
18784;BME280;9520;50.954;6.968;2023-12-20T00:36:49;100927.19;;;15.15;63.84
18784;BME280;9520;50.954;6.968;2023-12-20T00:37:11;100923.59;;;15.18;63.88
18784;BME280;9520;50.954;6.968;2023-12-20T00:37:34;100921.84;;;15.17;63.57
18784;BME280;9520;50.954;6.968;2023-12-20T00:37:58;100920.06;;;15.17;63.62
18784;BME280;9520;50.954;6.968;2023-12-20T00:38:19;100925.41;;;15.16;63.27
18784;BME280;9520;50.954;6.968;2023-12-20T00:38:42;100918.31;;;15.16;63.46
18784;BME280;9520;50.954;6.968;2023-12-20T00:39:04;100927.19;;;15.15;63.56
18784;BME280;9520;50.954;6.968;2023-12-20T00:39:26;100921.06;;;15.13;63.26
18784;BME280;9520;50.954;6.968;2023-12-20T00:39:47;100921.06;;;15.13;63.42
18784;BME280;9520;50.954;6.968;2023-12-20T00:40:10;100917.69;;;15.08;63.17
18784;BME280;9520;50.954;6.968;2023-12-20T00:40:33;100931.03;;;15.05;63.15
18784;BME280;9520;50.954;6.968;2023-12-20T00:40:55;100926.56;;;15.07;63.26
18784;BME280;9520;50.954;6.968;2023-12-20T00:41:17;100928.28;;;15.09;63.15
18784;BME280;9520;50.954;6.968;2023-12-20T00:41:38;100925.78;;;15.03;62.92
18784;BME280;9520;50.954;6.968;2023-12-20T00:42:00;100923.94;;;15.05;62.91
18784;BME280;9520;50.954;6.968;2023-12-20T00:42:22;100917.69;;;15.08;62.81
18784;BME280;9520;50.954;6.968;2023-12-20T00:42:45;100923.78;;;15.11;62.65
18784;BME280;9520;50.954;6.968;2023-12-20T00:43:08;100924.69;;;15.10;62.51
18784;BME280;9520;50.954;6.968;2023-12-20T00:43:30;100928.19;;;15.12;62.61
18784;BME280;9520;50.954;6.968;2023-12-20T00:43:51;100931.72;;;15.13;62.73
18784;BME280;9520;50.954;6.968;2023-12-20T00:44:13;100925.66;;;15.08;62.60
18784;BME280;9520;50.954;6.968;2023-12-20T00:44:35;100930.88;;;15.11;62.58
18784;BME280;9520;50.954;6.968;2023-12-20T00:44:58;100929.19;;;15.08;62.44
18784;BME280;9520;50.954;6.968;2023-12-20T00:45:20;100935.25;;;15.13;62.37
18784;BME280;9520;50.954;6.968;2023-12-20T00:45:41;100936.03;;;15.16;62.24
18784;BME280;9520;50.954;6.968;2023-12-20T00:46:03;100927.31;;;15.12;62.26
18784;BME280;9520;50.954;6.968;2023-12-20T00:46:25;100938.56;;;15.20;62.31
18784;BME280;9520;50.954;6.968;2023-12-20T00:46:48;100933.19;;;15.23;62.30
18784;BME280;9520;50.954;6.968;2023-12-20T00:47:10;100932.19;;;15.26;62.03
18784;BME280;9520;50.954;6.968;2023-12-20T00:47:31;100935.66;;;15.29;62.14
18784;BME280;9520;50.954;6.968;2023-12-20T00:47:53;100933.00;;;15.29;61.95
18784;BME280;9520;50.954;6.968;2023-12-20T00:48:15;100933.03;;;15.28;62.06
18784;BME280;9520;50.954;6.968;2023-12-20T00:48:38;100938.22;;;15.32;62.01
18784;BME280;9520;50.954;6.968;2023-12-20T00:48:59;100932.84;;;15.34;61.84
18784;BME280;9520;50.954;6.968;2023-12-20T00:49:21;100933.69;;;15.34;61.82
18784;BME280;9520;50.954;6.968;2023-12-20T00:49:43;100935.38;;;15.38;61.82
18784;BME280;9520;50.954;6.968;2023-12-20T00:50:06;100932.78;;;15.35;61.73
18784;BME280;9520;50.954;6.968;2023-12-20T00:50:29;100931.03;;;15.34;61.74
18784;BME280;9520;50.954;6.968;2023-12-20T00:50:51;100939.94;;;15.33;61.71
18784;BME280;9520;50.954;6.968;2023-12-20T00:51:13;100939.94;;;15.33;61.71
18784;BME280;9520;50.954;6.968;2023-12-20T00:51:34;100936.34;;;15.34;61.59
18784;BME280;9520;50.954;6.968;2023-12-20T00:51:57;100941.63;;;15.36;61.51
18784;BME280;9520;50.954;6.968;2023-12-20T00:52:19;100936.28;;;15.37;61.48
18784;BME280;9520;50.954;6.968;2023-12-20T00:52:42;100945.06;;;15.39;61.24
18784;BME280;9520;50.954;6.968;2023-12-20T00:53:04;100947.69;;;15.41;61.38
18784;BME280;9520;50.954;6.968;2023-12-20T00:53:27;100943.25;;;15.41;61.29
18784;BME280;9520;50.954;6.968;2023-12-20T00:53:50;100942.31;;;15.42;61.37
18784;BME280;9520;50.954;6.968;2023-12-20T00:54:12;100943.25;;;15.41;61.21
18784;BME280;9520;50.954;6.968;2023-12-20T00:54:33;100945.91;;;15.41;61.16
18784;BME280;9520;50.954;6.968;2023-12-20T00:54:55;100945.06;;;15.39;61.04
18784;BME280;9520;50.954;6.968;2023-12-20T00:55:17;100939.66;;;15.42;61.17
18784;BME280;9520;50.954;6.968;2023-12-20T00:55:40;100951.19;;;15.43;60.88
18784;BME280;9520;50.954;6.968;2023-12-20T00:56:02;100935.28;;;15.40;60.78
18784;BME280;9520;50.954;6.968;2023-12-20T00:56:23;100950.31;;;15.42;60.51
18784;BME280;9520;50.954;6.968;2023-12-20T00:56:45;100942.41;;;15.39;60.36
18784;BME280;9520;50.954;6.968;2023-12-20T00:57:07;100951.19;;;15.43;60.38
18784;BME280;9520;50.954;6.968;2023-12-20T00:57:29;100946.72;;;15.43;60.18
18784;BME280;9520;50.954;6.968;2023-12-20T00:57:52;100945.91;;;15.41;60.26
18784;BME280;9520;50.954;6.968;2023-12-20T00:58:14;100952.13;;;15.40;60.29
18784;BME280;9520;50.954;6.968;2023-12-20T00:58:37;100948.56;;;15.41;60.32
18784;BME280;9520;50.954;6.968;2023-12-20T00:58:59;100952.91;;;15.44;60.43
18784;BME280;9520;50.954;6.968;2023-12-20T00:59:20;100949.44;;;15.42;60.33
18784;BME280;9520;50.954;6.968;2023-12-20T00:59:43;100944.09;;;15.42;60.35
18784;BME280;9520;50.954;6.968;2023-12-20T01:00:06;100944.00;;;15.45;60.25
18784;BME280;9520;50.954;6.968;2023-12-20T01:00:27;100949.28;;;15.46;60.35
18784;BME280;9520;50.954;6.968;2023-12-20T01:00:49;100944.06;;;15.43;60.46
18784;BME280;9520;50.954;6.968;2023-12-20T01:01:11;100952.06;;;15.43;60.32
18784;BME280;9520;50.954;6.968;2023-12-20T01:01:33;100948.50;;;15.43;60.40
18784;BME280;9520;50.954;6.968;2023-12-20T01:01:55;100949.38;;;15.43;60.35
18784;BME280;9520;50.954;6.968;2023-12-20T01:02:18;100952.78;;;15.48;60.12
18784;BME280;9520;50.954;6.968;2023-12-20T01:02:40;100950.06;;;15.50;60.21
18784;BME280;9520;50.954;6.968;2023-12-20T01:03:02;100942.91;;;15.53;60.31
18784;BME280;9520;50.954;6.968;2023-12-20T01:03:24;100944.69;;;15.53;60.26
18784;BME280;9520;50.954;6.968;2023-12-20T01:03:46;100956.25;;;15.50;60.14
18784;BME280;9520;50.954;6.968;2023-12-20T01:04:08;100953.53;;;15.53;60.15
18784;BME280;9520;50.954;6.968;2023-12-20T01:04:31;100951.81;;;15.51;60.24
18784;BME280;9520;50.954;6.968;2023-12-20T01:04:53;100950.16;;;15.47;60.32
18784;BME280;9520;50.954;6.968;2023-12-20T01:05:15;100950.31;;;15.42;60.04
18784;BME280;9520;50.954;6.968;2023-12-20T01:05:36;100948.44;;;15.44;60.05
18784;BME280;9520;50.954;6.968;2023-12-20T01:05:58;100952.06;;;15.43;60.06
18784;BME280;9520;50.954;6.968;2023-12-20T01:06:20;100948.41;;;15.46;60.04
18784;BME280;9520;50.954;6.968;2023-12-20T01:06:42;100942.19;;;15.47;59.88
18784;BME280;9520;50.954;6.968;2023-12-20T01:07:04;100950.16;;;15.47;60.08
18784;BME280;9520;50.954;6.968;2023-12-20T01:07:26;100943.09;;;15.46;59.88
18784;BME280;9520;50.954;6.968;2023-12-20T01:07:49;100946.72;;;15.43;60.07
18784;BME280;9520;50.954;6.968;2023-12-20T01:08:10;100950.19;;;15.45;60.06
18784;BME280;9520;50.954;6.968;2023-12-20T01:08:34;100951.97;;;15.45;60.02
18784;BME280;9520;50.954;6.968;2023-12-20T01:08:56;100948.41;;;15.46;60.13
18784;BME280;9520;50.954;6.968;2023-12-20T01:09:18;100946.59;;;15.48;60.20
18784;BME280;9520;50.954;6.968;2023-12-20T01:09:39;100942.16;;;15.48;60.00
18784;BME280;9520;50.954;6.968;2023-12-20T01:10:01;100955.31;;;15.53;60.03
18784;BME280;9520;50.954;6.968;2023-12-20T01:10:24;100943.72;;;15.55;59.84
18784;BME280;9520;50.954;6.968;2023-12-20T01:10:49;100947.19;;;15.58;60.01
18784;BME280;9520;50.954;6.968;2023-12-20T01:11:11;100938.31;;;15.59;60.14
18784;BME280;9520;50.954;6.968;2023-12-20T01:11:32;100943.63;;;15.59;60.09
18784;BME280;9520;50.954;6.968;2023-12-20T01:11:54;100945.44;;;15.57;59.68
18784;BME280;9520;50.954;6.968;2023-12-20T01:12:16;100944.53;;;15.58;59.83
18784;BME280;9520;50.954;6.968;2023-12-20T01:12:38;100943.72;;;15.55;59.67
18784;BME280;9520;50.954;6.968;2023-12-20T01:13:00;100944.59;;;15.56;59.73
18784;BME280;9520;50.954;6.968;2023-12-20T01:13:22;100933.22;;;15.51;59.56
18784;BME280;9520;50.954;6.968;2023-12-20T01:13:44;100941.00;;;15.57;59.56
18784;BME280;9520;50.954;6.968;2023-12-20T01:14:05;100943.56;;;15.60;59.69
18784;BME280;9520;50.954;6.968;2023-12-20T01:14:27;100934.09;;;15.50;59.77
18784;BME280;9520;50.954;6.968;2023-12-20T01:14:49;100945.69;;;15.49;59.78
18784;BME280;9520;50.954;6.968;2023-12-20T01:15:11;100944.97;;;15.42;59.87
18784;BME280;9520;50.954;6.968;2023-12-20T01:15:33;100946.72;;;15.43;59.80
18784;BME280;9520;50.954;6.968;2023-12-20T01:15:55;100945.75;;;15.46;60.02
18784;BME280;9520;50.954;6.968;2023-12-20T01:16:17;100938.63;;;15.48;59.62
18784;BME280;9520;50.954;6.968;2023-12-20T01:16:38;100944.00;;;15.45;59.72
18784;BME280;9520;50.954;6.968;2023-12-20T01:17:01;100948.38;;;15.47;59.55
18784;BME280;9520;50.954;6.968;2023-12-20T01:17:24;100949.25;;;15.48;59.58
18784;BME280;9520;50.954;6.968;2023-12-20T01:17:45;100942.06;;;15.50;59.66
18784;BME280;9520;50.954;6.968;2023-12-20T01:18:08;100943.06;;;15.47;59.58
18784;BME280;9520;50.954;6.968;2023-12-20T01:18:30;100948.38;;;15.47;59.51
18784;BME280;9520;50.954;6.968;2023-12-20T01:18:52;100946.06;;;15.35;59.52
18784;BME280;9520;50.954;6.968;2023-12-20T01:19:14;100953.97;;;15.38;59.44
18784;BME280;9520;50.954;6.968;2023-12-20T01:19:36;100953.13;;;15.36;59.31
18784;BME280;9520;50.954;6.968;2023-12-20T01:19:58;100947.13;;;15.30;59.65
18784;BME280;9520;50.954;6.968;2023-12-20T01:20:20;100950.59;;;15.33;59.72
18784;BME280;9520;50.954;6.968;2023-12-20T01:20:42;100960.38;;;15.31;59.78
18784;BME280;9520;50.954;6.968;2023-12-20T01:21:04;100953.25;;;15.33;59.86
18784;BME280;9520;50.954;6.968;2023-12-20T01:21:27;100954.91;;;15.36;59.83
18784;BME280;9520;50.954;6.968;2023-12-20T01:21:49;100957.50;;;15.39;59.69
18784;BME280;9520;50.954;6.968;2023-12-20T01:22:10;100948.59;;;15.40;59.68
18784;BME280;9520;50.954;6.968;2023-12-20T01:22:32;100952.31;;;15.34;59.67
18784;BME280;9520;50.954;6.968;2023-12-20T01:22:55;100955.09;;;15.30;59.50
18784;BME280;9520;50.954;6.968;2023-12-20T01:23:17;100956.78;;;15.34;59.71
18784;BME280;9520;50.954;6.968;2023-12-20T01:23:40;100954.13;;;15.34;59.53
18784;BME280;9520;50.954;6.968;2023-12-20T01:24:01;100957.59;;;15.36;59.83
18784;BME280;9520;50.954;6.968;2023-12-20T01:24:23;100953.25;;;15.33;59.42
18784;BME280;9520;50.954;6.968;2023-12-20T01:24:45;100962.81;;;15.39;59.48
18784;BME280;9520;50.954;6.968;2023-12-20T01:25:07;100961.88;;;15.40;59.50
18784;BME280;9520;50.954;6.968;2023-12-20T01:25:29;100961.94;;;15.38;59.31
18784;BME280;9520;50.954;6.968;2023-12-20T01:25:51;100943.28;;;15.40;59.42
18784;BME280;9520;50.954;6.968;2023-12-20T01:26:14;100957.50;;;15.39;59.44
18784;BME280;9520;50.954;6.968;2023-12-20T01:26:36;100954.00;;;15.37;59.62
18784;BME280;9520;50.954;6.968;2023-12-20T01:26:58;100948.09;;;15.27;59.52
18784;BME280;9520;50.954;6.968;2023-12-20T01:27:19;100949.00;;;15.26;59.50
18784;BME280;9520;50.954;6.968;2023-12-20T01:27:41;100956.94;;;15.28;59.75
18784;BME280;9520;50.954;6.968;2023-12-20T01:28:04;100950.66;;;15.30;59.80
18784;BME280;9520;50.954;6.968;2023-12-20T01:28:58;100952.38;;;15.33;59.84
18784;BME280;9520;50.954;6.968;2023-12-20T01:29:19;100947.25;;;15.25;59.70
18784;BME280;9520;50.954;6.968;2023-12-20T01:29:41;100952.50;;;15.28;59.82
18784;BME280;9520;50.954;6.968;2023-12-20T01:30:04;100947.22;;;15.27;59.76
18784;BME280;9520;50.954;6.968;2023-12-20T01:30:26;100946.34;;;15.26;59.98
18784;BME280;9520;50.954;6.968;2023-12-20T01:30:48;100951.53;;;15.31;59.88
18784;BME280;9520;50.954;6.968;2023-12-20T01:31:10;100943.63;;;15.29;59.58
18784;BME280;9520;50.954;6.968;2023-12-20T01:31:32;100951.63;;;15.28;59.97
18784;BME280;9520;50.954;6.968;2023-12-20T01:31:54;100953.38;;;15.29;59.98
18784;BME280;9520;50.954;6.968;2023-12-20T01:32:16;100940.25;;;15.24;59.86
18784;BME280;9520;50.954;6.968;2023-12-20T01:32:38;100951.78;;;15.23;59.79
18784;BME280;9520;50.954;6.968;2023-12-20T01:33:00;100956.25;;;15.21;59.79
18784;BME280;9520;50.954;6.968;2023-12-20T01:33:22;100945.75;;;15.17;59.79
18784;BME280;9520;50.954;6.968;2023-12-20T01:33:44;100957.09;;;15.23;59.88
18784;BME280;9520;50.954;6.968;2023-12-20T01:34:07;100953.56;;;15.23;59.73
18784;BME280;9520;50.954;6.968;2023-12-20T01:34:29;100950.91;;;15.23;59.67
18784;BME280;9520;50.954;6.968;2023-12-20T01:34:51;100955.19;;;15.27;59.71
18784;BME280;9520;50.954;6.968;2023-12-20T01:35:13;100965.06;;;15.23;59.63
18784;BME280;9520;50.954;6.968;2023-12-20T01:35:35;100956.34;;;15.18;59.71
18784;BME280;9520;50.954;6.968;2023-12-20T01:35:56;100967.66;;;15.25;59.94
18784;BME280;9520;50.954;6.968;2023-12-20T01:36:19;100962.34;;;15.25;59.93
18784;BME280;9520;50.954;6.968;2023-12-20T01:36:41;100965.09;;;15.22;59.81
18784;BME280;9520;50.954;6.968;2023-12-20T01:37:03;100968.53;;;15.25;59.95
18784;BME280;9520;50.954;6.968;2023-12-20T01:37:25;100960.56;;;15.25;59.91
18784;BME280;9520;50.954;6.968;2023-12-20T01:37:48;100964.88;;;15.29;59.99
18784;BME280;9520;50.954;6.968;2023-12-20T01:38:12;100956.94;;;15.28;60.02
18784;BME280;9520;50.954;6.968;2023-12-20T01:38:33;100955.97;;;15.30;59.99
18784;BME280;9520;50.954;6.968;2023-12-20T01:38:55;100947.34;;;15.24;59.82
18784;BME280;9520;50.954;6.968;2023-12-20T01:39:17;100960.38;;;15.31;59.68
18784;BME280;9520;50.954;6.968;2023-12-20T01:39:48;100959.47;;;15.32;59.53
18784;BME280;9520;50.954;6.968;2023-12-20T01:40:11;100960.41;;;15.30;59.83
18784;BME280;9520;50.954;6.968;2023-12-20T01:40:33;100957.81;;;15.28;59.90
18784;BME280;9520;50.954;6.968;2023-12-20T01:40:54;100963.91;;;15.32;59.94
18784;BME280;9520;50.954;6.968;2023-12-20T01:41:16;100966.56;;;15.32;59.66
18784;BME280;9520;50.954;6.968;2023-12-20T01:41:38;100963.13;;;15.28;59.68
18784;BME280;9520;50.954;6.968;2023-12-20T01:42:00;100967.59;;;15.28;59.60
18784;BME280;9520;50.954;6.968;2023-12-20T01:42:22;100967.53;;;15.29;59.61
18784;BME280;9520;50.954;6.968;2023-12-20T01:42:44;100970.19;;;15.29;59.73
18784;BME280;9520;50.954;6.968;2023-12-20T01:43:08;100971.13;;;15.28;59.90
18784;BME280;9520;50.954;6.968;2023-12-20T01:43:30;100969.25;;;15.30;59.98
18784;BME280;9520;50.954;6.968;2023-12-20T01:44:01;100971.88;;;15.32;59.73
18784;BME280;9520;50.954;6.968;2023-12-20T01:44:24;100968.34;;;15.31;59.62
18784;BME280;9520;50.954;6.968;2023-12-20T01:44:46;100971.00;;;15.31;59.44
18784;BME280;9520;50.954;6.968;2023-12-20T01:45:08;100979.16;;;15.25;59.45
18784;BME280;9520;50.954;6.968;2023-12-20T01:45:32;100975.69;;;15.23;59.54
18784;BME280;9520;50.954;6.968;2023-12-20T01:45:56;100972.22;;;15.20;59.44
18784;BME280;9520;50.954;6.968;2023-12-20T01:46:20;100973.94;;;15.22;59.54
18784;BME280;9520;50.954;6.968;2023-12-20T01:46:42;100980.91;;;15.26;59.55
18784;BME280;9520;50.954;6.968;2023-12-20T01:47:04;100977.38;;;15.26;59.45
18784;BME280;9520;50.954;6.968;2023-12-20T01:47:25;100974.72;;;15.26;59.76
18784;BME280;9520;50.954;6.968;2023-12-20T01:47:48;100979.25;;;15.22;59.22
18784;BME280;9520;50.954;6.968;2023-12-20T01:48:11;100973.06;;;14.91;59.62
18784;BME280;9520;50.954;6.968;2023-12-20T01:48:33;100967.75;;;14.91;59.79
18784;BME280;9520;50.954;6.968;2023-12-20T01:48:55;100972.00;;;14.98;59.46
18784;BME280;9520;50.954;6.968;2023-12-20T01:49:16;100970.25;;;14.97;59.75
18784;BME280;9520;50.954;6.968;2023-12-20T01:49:39;100978.31;;;14.94;60.14
18784;BME280;9520;50.954;6.968;2023-12-20T01:50:02;100976.56;;;14.93;60.15
18784;BME280;9520;50.954;6.968;2023-12-20T01:50:25;100972.69;;;14.74;60.57
18784;BME280;9520;50.954;6.968;2023-12-20T01:50:48;100979.66;;;14.78;61.06
18784;BME280;9520;50.954;6.968;2023-12-20T01:51:10;100980.81;;;14.67;61.06
18784;BME280;9520;50.954;6.968;2023-12-20T01:51:32;100976.28;;;14.71;60.80
18784;BME280;9520;50.954;6.968;2023-12-20T01:51:56;100967.94;;;14.52;61.14
18784;BME280;9520;50.954;6.968;2023-12-20T01:52:18;100974.84;;;14.59;60.98
18784;BME280;9520;50.954;6.968;2023-12-20T01:52:41;100972.94;;;14.64;60.66
18784;BME280;9520;50.954;6.968;2023-12-20T01:53:05;100967.66;;;14.63;60.56
18784;BME280;9520;50.954;6.968;2023-12-20T01:53:31;100976.34;;;14.69;60.53
18784;BME280;9520;50.954;6.968;2023-12-20T01:53:55;100978.94;;;14.71;60.51
18784;BME280;9520;50.954;6.968;2023-12-20T01:54:19;100986.13;;;14.67;60.64
18784;BME280;9520;50.954;6.968;2023-12-20T01:54:42;100980.91;;;14.64;60.42
18784;BME280;9520;50.954;6.968;2023-12-20T01:55:05;100975.41;;;14.70;60.49
18784;BME280;9520;50.954;6.968;2023-12-20T01:55:36;100990.28;;;14.78;60.22
18784;BME280;9520;50.954;6.968;2023-12-20T01:56:00;100988.66;;;14.72;59.99
18784;BME280;9520;50.954;6.968;2023-12-20T01:56:24;100987.72;;;14.75;60.13
18784;BME280;9520;50.954;6.968;2023-12-20T01:56:45;100984.31;;;14.69;60.16
18784;BME280;9520;50.954;6.968;2023-12-20T01:57:07;100989.56;;;14.71;60.22
18784;BME280;9520;50.954;6.968;2023-12-20T01:57:30;100988.78;;;14.67;60.41
18784;BME280;9520;50.954;6.968;2023-12-20T01:57:52;100987.88;;;14.68;60.12
18784;BME280;9520;50.954;6.968;2023-12-20T01:58:15;100993.03;;;14.75;60.21
18784;BME280;9520;50.954;6.968;2023-12-20T01:58:39;100991.13;;;14.80;60.20